Time;durP1;ratioP1;P1;durP2;ratioP2;P2;SDS_P1;SDS_P2;PMS_P1;PMS_P2;Temp;Humidity;BMP_temperature;BMP_pressure;BME280_temperature;BME280_humidity;BME280_pressure;Samples;Min_cycle;Max_cycle;Signal;HPM_P1;HPM_P2
2022/11/19 00:01:34;;;;;;;29.33;18.60;;;;;;;6.99;100.00;100655.88;5253357;28;20033;-75
2022/11/19 00:04:06;;;;;;;24.03;18.17;;;;;;;6.75;100.00;100656.13;5253751;28;20061;-71
2022/11/19 00:06:37;;;;;;;22.40;18.00;;;;;;;6.94;100.00;100659.59;5254664;28;20045;-71
2022/11/19 00:09:13;;;;;;;26.93;18.97;;;;;;;6.78;100.00;100645.56;5255388;28;20040;-76
2022/11/19 00:14:35;;;;;;;26.60;18.40;;;;;;;6.77;100.00;100654.28;5252393;28;20033;-75
2022/11/19 00:17:06;;;;;;;26.07;19.67;;;;;;;6.55;100.00;100649.22;5252418;28;20032;-75
2022/11/19 00:19:37;;;;;;;23.40;18.83;;;;;;;6.72;100.00;100658.03;5253437;28;20083;-74
2022/11/19 00:22:08;;;;;;;26.33;18.93;;;;;;;6.64;100.00;100647.97;5253269;28;20484;-73
2022/11/19 00:24:40;;;;;;;22.90;17.77;;;;;;;6.45;100.00;100663.56;5252968;28;20549;-71
2022/11/19 00:27:12;;;;;;;28.00;19.43;;;;;;;6.33;100.00;100651.97;5252113;28;20502;-75
2022/11/19 00:29:43;;;;;;;21.57;17.13;;;;;;;6.33;100.00;100652.81;5252646;28;20033;-75
2022/11/19 00:32:14;;;;;;;27.67;18.33;;;;;;;6.24;100.00;100659.28;5252903;28;20464;-72
2022/11/19 00:34:45;;;;;;;24.77;18.97;;;;;;;6.29;100.00;100670.31;5256348;28;20894;-75
2022/11/19 00:37:17;;;;;;;24.23;18.10;;;;;;;6.07;100.00;100648.78;5256723;28;20044;-74
2022/11/19 00:39:48;;;;;;;27.03;18.00;;;;;;;6.31;100.00;100656.38;5257133;28;20063;-72
2022/11/19 00:42:20;;;;;;;28.03;19.33;;;;;;;6.22;100.00;100668.03;5237882;28;20036;-74
2022/11/19 00:44:51;;;;;;;22.80;17.97;;;;;;;6.28;100.00;100679.00;5257482;28;20033;-74
2022/11/19 00:47:22;;;;;;;25.00;18.10;;;;;;;6.24;100.00;100680.09;5257173;28;20037;-71
2022/11/19 00:49:54;;;;;;;24.70;18.37;;;;;;;6.09;100.00;100670.34;5256673;28;20033;-75
2022/11/19 00:52:25;;;;;;;27.30;18.80;;;;;;;6.20;100.00;100675.91;5239026;28;20078;-75
2022/11/19 00:54:56;;;;;;;22.43;17.03;;;;;;;6.08;100.00;100672.09;5256659;28;20064;-75
2022/11/19 00:57:27;;;;;;;25.83;18.20;;;;;;;5.98;100.00;100674.25;5256283;28;20059;-75
2022/11/19 00:59:58;;;;;;;25.17;18.80;;;;;;;5.96;100.00;100683.00;5256794;28;20028;-74
2022/11/19 01:02:30;;;;;;;24.83;18.73;;;;;;;6.00;100.00;100676.75;5256413;28;20095;-74
2022/11/19 01:05:01;;;;;;;23.47;16.80;;;;;;;5.81;100.00;100683.59;5256461;28;20041;-71
2022/11/19 01:07:32;;;;;;;26.63;19.83;;;;;;;5.71;100.00;100682.28;5255544;28;20029;-76
2022/11/19 01:10:04;;;;;;;30.80;20.23;;;;;;;5.82;100.00;100692.22;5256395;28;20434;-77
2022/11/19 01:13:33;;;;;;;24.17;18.73;;;;;;;5.81;100.00;100699.19;5238235;28;20639;-72
2022/11/19 01:15:26;;;;;;;26.87;19.63;;;;;;;5.76;100.00;100690.72;5256564;28;20037;-76
2022/11/19 01:17:58;;;;;;;25.23;18.17;;;;;;;5.74;100.00;100694.31;5255815;28;20514;-71
2022/11/19 01:20:29;;;;;;;24.17;18.33;;;;;;;5.89;100.00;100701.47;5256445;28;20040;-75
2022/11/19 01:23:00;;;;;;;22.30;18.67;;;;;;;5.75;100.00;100707.25;5238347;28;20468;-75
2022/11/19 01:25:32;;;;;;;24.43;18.17;;;;;;;5.69;100.00;100703.13;5238735;28;20053;-71
2022/11/19 01:28:04;;;;;;;26.40;19.20;;;;;;;5.49;100.00;100692.72;5255534;28;20029;-75
2022/11/19 01:30:39;;;;;;;25.47;19.53;;;;;;;5.69;100.00;100716.13;5256006;28;20036;-75
2022/11/19 01:33:11;;;;;;;25.73;20.57;;;;;;;5.45;100.00;100720.56;5256423;28;20025;-76
2022/11/19 01:35:42;;;;;;;27.63;20.73;;;;;;;5.43;100.00;100728.44;5255695;28;20468;-72
2022/11/19 01:38:13;;;;;;;27.13;19.73;;;;;;;5.52;100.00;100727.22;5255522;28;20036;-75
2022/11/19 01:40:45;;;;;;;30.13;20.17;;;;;;;5.37;100.00;100723.50;5256215;28;20399;-75
2022/11/19 01:43:16;;;;;;;27.43;20.83;;;;;;;5.48;100.00;100732.63;5257633;28;20033;-75
2022/11/19 01:45:48;;;;;;;27.10;20.67;;;;;;;5.50;100.00;100734.22;5256962;28;20057;-71
2022/11/19 01:48:30;;;;;;;31.47;20.73;;;;;;;5.51;100.00;100735.94;5255076;28;20025;-76
2022/11/19 01:51:08;;;;;;;30.43;20.40;;;;;;;4.93;100.00;100654.25;5236261;28;20029;-76
2022/11/19 01:53:42;;;;;;;28.67;20.97;;;;;;;5.28;100.00;100727.31;5253062;28;20544;-72
2022/11/19 01:56:17;;;;;;;26.83;19.70;;;;;;;5.43;100.00;100737.97;5255508;28;20033;-75
2022/11/19 01:58:54;;;;;;;26.35;20.58;;;;;;;5.47;100.00;100736.94;5254739;28;20033;-75
2022/11/19 02:01:27;;;;;;;24.57;19.97;;;;;;;5.46;100.00;100743.06;5254715;28;20087;-71
2022/11/19 02:04:03;;;;;;;25.20;19.57;;;;;;;5.57;100.00;100743.47;5255654;28;20100;-72
2022/11/19 02:06:35;;;;;;;24.40;19.13;;;;;;;5.28;100.00;100740.28;5254965;28;20057;-73
2022/11/19 02:09:06;;;;;;;25.20;19.50;;;;;;;5.40;100.00;100751.09;5255260;28;20028;-75
2022/11/19 02:12:03;;;;;;;23.33;18.87;;;;;;;5.42;100.00;100744.09;5295830;22;20060;-75
2022/11/19 02:14:56;;;;;;;22.10;19.30;;;;;;;5.29;100.00;100757.56;5235705;28;20037;-75
2022/11/19 02:17:36;;;;;;;23.10;18.63;;;;;;;5.42;100.00;100754.47;5235285;28;20603;-76
2022/11/19 02:20:25;;;;;;;21.67;17.63;;;;;;;5.30;100.00;100746.28;5252983;28;20504;-73
2022/11/19 02:23:21;;;;;;;26.30;20.40;;;;;;;5.32;100.00;100754.81;5251263;28;20434;-75
2022/11/19 02:26:01;;;;;;;24.53;18.40;;;;;;;5.20;100.00;100750.13;5233132;28;20041;-75
2022/11/19 02:28:47;;;;;;;23.40;18.57;;;;;;;5.22;100.00;100753.50;5252909;28;20359;-75
2022/11/19 02:31:38;;;;;;;24.23;19.27;;;;;;;5.14;100.00;100748.63;5244349;28;20033;-71
2022/11/19 02:34:17;;;;;;;23.73;19.87;;;;;;;5.12;100.00;100752.16;5255048;28;20435;-76
2022/11/19 02:37:25;;;;;;;25.40;19.97;;;;;;;5.18;100.00;100754.53;5237449;28;20059;-74
2022/11/19 02:40:06;;;;;;;20.80;17.83;;;;;;;5.05;100.00;100749.81;5255524;28;20086;-75
2022/11/19 02:42:42;;;;;;;21.90;16.03;;;;;;;5.08;100.00;100757.47;5252757;28;20666;-76
2022/11/19 02:45:29;;;;;;;20.87;15.47;;;;;;;5.06;100.00;100751.50;5254608;28;20040;-76
2022/11/19 02:48:08;;;;;;;18.50;15.50;;;;;;;5.02;100.00;100747.34;5236482;28;20553;-73
2022/11/19 02:50:47;;;;;;;17.00;14.77;;;;;;;4.91;100.00;100750.31;5238044;28;20033;-75
2022/11/19 02:53:19;;;;;;;17.33;12.93;;;;;;;4.74;100.00;100769.13;5240772;28;20030;-75
2022/11/19 03:04:32;;;;;;;13.60;11.63;;;;;;;4.64;100.00;100779.00;5253573;28;20049;-75
2022/11/19 03:07:11;;;;;;;14.67;12.20;;;;;;;4.68;100.00;100788.34;5254406;28;20427;-75
2022/11/19 03:09:50;;;;;;;12.37;11.00;;;;;;;4.45;100.00;100777.03;5253848;28;20479;-72
2022/11/19 03:12:35;;;;;;;12.97;10.90;;;;;;;4.54;100.00;100780.22;5253400;28;20028;-75
2022/11/19 03:18:31;;;;;;;15.13;11.77;;;;;;;4.26;100.00;100787.19;5254333;28;20119;-74
2022/11/19 03:21:31;;;;;;;14.17;12.33;;;;;;;4.14;100.00;100772.09;5253602;28;20029;-72
2022/11/19 03:24:11;;;;;;;15.60;13.33;;;;;;;4.26;100.00;100786.38;5251589;28;20125;-75
2022/11/19 03:26:52;;;;;;;17.17;13.97;;;;;;;4.14;100.00;100791.06;5253672;28;20029;-74
2022/11/19 03:29:26;;;;;;;16.43;12.87;;;;;;;3.97;100.00;100796.81;5253809;28;20021;-75
2022/11/19 03:32:05;;;;;;;14.63;13.13;;;;;;;4.13;100.00;100791.13;5254535;28;20045;-75
2022/11/19 03:34:39;;;;;;;17.77;13.53;;;;;;;4.11;100.00;100779.06;5242173;28;20485;-76
2022/11/19 03:37:13;;;;;;;16.20;14.05;;;;;;;4.04;100.00;100793.13;5252466;28;20025;-75
2022/11/19 03:39:47;;;;;;;16.93;14.27;;;;;;;4.13;100.00;100799.75;5235899;28;20021;-74
2022/11/19 03:42:20;;;;;;;16.50;13.57;;;;;;;3.93;100.00;100793.47;5252557;28;20505;-75
2022/11/19 03:44:57;;;;;;;18.07;15.10;;;;;;;4.04;100.00;100798.31;5253892;28;20033;-73
2022/11/19 03:47:39;;;;;;;16.23;14.53;;;;;;;3.89;100.00;100797.06;5234976;28;20036;-75
2022/11/19 03:50:22;;;;;;;19.23;15.60;;;;;;;3.89;100.00;100796.22;5248205;28;20040;-74
2022/11/19 03:52:56;;;;;;;21.03;16.30;;;;;;;3.89;100.00;100802.25;5267803;28;20472;-75
2022/11/19 03:55:48;;;;;;;18.67;15.57;;;;;;;3.85;100.00;100805.84;5253105;28;20029;-75
2022/11/19 03:58:22;;;;;;;20.70;15.90;;;;;;;3.78;100.00;100810.38;5220182;28;20456;-75
2022/11/19 04:00:54;;;;;;;19.97;15.83;;;;;;;3.90;100.00;100816.03;5247866;28;20033;-74
2022/11/19 04:03:25;;;;;;;20.37;17.47;;;;;;;3.80;100.00;100816.34;5242877;28;20033;-74
2022/11/19 04:05:57;;;;;;;19.40;15.83;;;;;;;3.75;100.00;100805.28;5235587;28;20029;-73
2022/11/19 04:08:28;;;;;;;22.57;16.23;;;;;;;3.90;100.00;100808.25;5252543;28;20087;-73
2022/11/19 04:10:59;;;;;;;23.13;17.13;;;;;;;3.87;100.00;100812.66;5253120;28;20044;-75
2022/11/19 04:13:30;;;;;;;22.37;18.30;;;;;;;3.97;100.00;100818.41;5252277;28;20033;-75
2022/11/19 04:16:02;;;;;;;21.60;17.27;;;;;;;3.93;100.00;100818.53;5253287;28;20024;-71
2022/11/19 04:18:33;;;;;;;22.30;17.10;;;;;;;3.84;100.00;100812.75;5253478;28;20087;-75
2022/11/19 04:21:04;;;;;;;23.67;19.07;;;;;;;3.64;100.00;100818.56;5251556;28;20036;-75
2022/11/19 04:23:36;;;;;;;23.70;18.47;;;;;;;3.74;100.00;100837.25;5253567;28;20514;-74
2022/11/19 04:26:07;;;;;;;22.50;17.73;;;;;;;3.66;100.00;100828.88;5253042;28;20036;-74
2022/11/19 04:28:38;;;;;;;22.50;18.87;;;;;;;3.63;100.00;100830.66;5255190;28;20029;-75
2022/11/19 04:31:09;;;;;;;25.23;20.93;;;;;;;3.57;100.00;100836.03;5253807;28;20025;-76
2022/11/19 04:33:41;;;;;;;26.40;20.67;;;;;;;3.67;100.00;100834.00;5252933;28;20028;-72
2022/11/19 04:36:12;;;;;;;26.27;20.73;;;;;;;3.55;100.00;100837.81;5258082;28;20105;-74
2022/11/19 04:38:43;;;;;;;24.57;20.13;;;;;;;3.54;100.00;100830.97;5251724;28;20163;-75
2022/11/19 04:41:15;;;;;;;27.80;20.87;;;;;;;3.63;100.00;100846.19;5252605;28;20029;-75
2022/11/19 04:43:46;;;;;;;24.60;20.73;;;;;;;3.82;100.00;100853.41;5253855;28;20102;-75
2022/11/19 04:46:17;;;;;;;26.00;20.83;;;;;;;3.51;100.00;100843.97;5252158;28;20033;-72
2022/11/19 04:48:49;;;;;;;26.93;21.60;;;;;;;3.53;100.00;100849.13;5253116;28;20025;-76
2022/11/19 04:51:20;;;;;;;25.47;20.93;;;;;;;3.38;100.00;100840.94;5251955;28;20483;-74
2022/11/19 04:53:51;;;;;;;24.40;19.53;;;;;;;3.49;100.00;100848.38;5253030;28;20052;-76
2022/11/19 04:56:22;;;;;;;26.33;20.70;;;;;;;3.51;100.00;100856.94;5251091;28;20021;-75
2022/11/19 04:58:54;;;;;;;24.93;20.23;;;;;;;3.52;100.00;100850.88;5252094;28;20044;-73
2022/11/19 05:01:25;;;;;;;26.93;21.63;;;;;;;3.50;100.00;100855.25;5252621;28;20033;-75
2022/11/19 05:03:57;;;;;;;24.50;19.63;;;;;;;3.54;100.00;100864.63;5252889;28;20047;-74
2022/11/19 05:06:28;;;;;;;24.00;20.43;;;;;;;3.55;100.00;100868.91;5254350;28;20029;-73
2022/11/19 05:08:59;;;;;;;26.37;22.30;;;;;;;3.59;100.00;100860.16;5254895;28;20058;-71
2022/11/19 05:11:30;;;;;;;24.80;21.30;;;;;;;3.47;100.00;100863.94;5249242;28;20045;-76
2022/11/19 05:14:02;;;;;;;26.67;22.47;;;;;;;3.43;100.00;100861.50;5252351;28;20078;-76
2022/11/19 05:16:33;;;;;;;26.83;21.47;;;;;;;3.47;100.00;100876.06;5252266;28;20029;-77
2022/11/19 05:19:04;;;;;;;25.90;21.37;;;;;;;3.45;100.00;100878.69;5252837;28;20040;-78
2022/11/19 05:21:36;;;;;;;29.20;21.73;;;;;;;3.46;100.00;100880.38;5238072;28;20095;-79
2022/11/19 05:24:07;;;;;;;29.27;21.67;;;;;;;3.26;100.00;100886.16;5256357;28;20033;-77
2022/11/19 05:26:38;;;;;;;25.90;22.00;;;;;;;3.34;100.00;100878.16;5255903;28;20395;-75
2022/11/19 05:29:10;;;;;;;27.03;22.23;;;;;;;3.38;100.00;100890.97;5256184;28;20414;-75
2022/11/19 05:31:41;;;;;;;28.00;22.37;;;;;;;3.41;100.00;100887.44;5257097;28;20032;-72
2022/11/19 05:34:12;;;;;;;28.07;23.63;;;;;;;3.41;100.00;100891.75;5253979;28;20124;-76
2022/11/19 05:36:43;;;;;;;27.53;23.23;;;;;;;3.36;100.00;100890.16;5252833;28;20025;-76
2022/11/19 05:39:15;;;;;;;30.50;23.37;;;;;;;3.43;100.00;100901.19;5256296;28;20033;-76
2022/11/19 05:41:46;;;;;;;26.90;22.63;;;;;;;3.39;100.00;100895.25;5246562;28;20037;-74
2022/11/19 05:44:17;;;;;;;29.27;23.27;;;;;;;3.23;100.00;100894.84;5247657;28;20032;-72
2022/11/19 05:46:48;;;;;;;27.53;22.47;;;;;;;3.08;100.00;100901.28;5255589;28;20032;-79
2022/11/19 05:49:20;;;;;;;29.03;23.83;;;;;;;3.05;100.00;100898.78;5255216;28;20376;-79
2022/11/19 05:51:51;;;;;;;28.83;24.43;;;;;;;2.91;100.00;100894.00;5256049;28;20580;-77
2022/11/19 05:54:22;;;;;;;28.93;23.97;;;;;;;2.98;100.00;100905.88;5254935;28;20489;-77
2022/11/19 05:56:53;;;;;;;27.23;23.70;;;;;;;3.06;100.00;100907.38;5254661;28;20471;-78
2022/11/19 05:59:25;;;;;;;29.73;25.23;;;;;;;3.07;100.00;100899.59;5255522;28;20040;-77
2022/11/19 06:01:56;;;;;;;28.73;24.80;;;;;;;3.19;100.00;100915.69;5254327;28;20075;-76
2022/11/19 06:04:27;;;;;;;29.80;25.23;;;;;;;3.08;100.00;100922.00;5255842;28;20115;-72
2022/11/19 06:06:59;;;;;;;28.50;24.10;;;;;;;3.04;100.00;100925.53;5254767;28;20479;-74
2022/11/19 06:09:30;;;;;;;30.50;25.80;;;;;;;3.18;100.00;100921.75;5255194;28;20037;-77
2022/11/19 06:12:01;;;;;;;29.63;25.13;;;;;;;3.13;100.00;100922.72;5253930;28;20072;-77
2022/11/19 06:14:32;;;;;;;28.70;24.50;;;;;;;3.02;100.00;100914.38;5255062;28;20029;-76
2022/11/19 06:17:05;;;;;;;29.33;25.33;;;;;;;2.98;100.00;100925.72;5237339;28;20136;-78
2022/11/19 06:19:36;;;;;;;28.73;24.40;;;;;;;3.05;100.00;100926.41;5244329;28;20148;-78
2022/11/19 06:22:08;;;;;;;30.93;26.87;;;;;;;3.14;100.00;100929.59;5248918;28;20025;-74
2022/11/19 06:24:39;;;;;;;30.27;25.50;;;;;;;3.14;100.00;100937.34;5254124;28;20453;-76
2022/11/19 06:27:10;;;;;;;29.23;25.53;;;;;;;3.12;100.00;100939.16;5252573;28;20044;-76
2022/11/19 06:29:42;;;;;;;29.13;24.97;;;;;;;3.12;100.00;100948.66;5254022;28;20035;-77
2022/11/19 06:32:13;;;;;;;31.43;25.87;;;;;;;3.22;100.00;100960.44;5251809;28;20047;-78
2022/11/19 06:34:44;;;;;;;30.20;24.97;;;;;;;3.24;100.00;100950.06;5253612;28;20025;-77
2022/11/19 06:37:16;;;;;;;28.77;25.47;;;;;;;3.07;100.00;100959.09;5252106;28;20021;-77
2022/11/19 06:39:47;;;;;;;33.77;28.00;;;;;;;2.91;100.00;100956.09;5250853;28;20025;-74
2022/11/19 06:42:36;;;;;;;33.43;28.17;;;;;;;3.13;100.00;100966.72;5250102;28;20033;-77
2022/11/19 06:45:11;;;;;;;32.60;27.53;;;;;;;2.88;100.00;100971.69;5250764;28;20083;-74
2022/11/19 06:47:45;;;;;;;;;;;;;;;3.19;100.00;100963.13;5252355;28;20060;-76
2022/11/19 06:50:17;;;;;;;36.03;28.50;;;;;;;2.88;100.00;100966.53;5251302;28;19927;-75
2022/11/19 06:52:48;;;;;;;34.83;29.33;;;;;;;2.85;100.00;100967.44;5252196;28;20028;-76
2022/11/19 06:55:19;;;;;;;37.17;30.50;;;;;;;2.72;100.00;100955.72;5252962;28;20020;-77
2022/11/19 06:57:51;;;;;;;34.60;28.37;;;;;;;2.92;100.00;100967.25;5251690;28;20391;-77
2022/11/19 07:00:22;;;;;;;38.80;29.90;;;;;;;2.75;100.00;100971.13;5253034;28;20025;-72
2022/11/19 07:02:53;;;;;;;35.10;29.03;;;;;;;2.89;100.00;100979.41;5235284;28;20045;-76
2022/11/19 07:05:25;;;;;;;38.23;29.33;;;;;;;2.63;100.00;100955.06;5252402;28;20021;-74
2022/11/19 07:07:57;;;;;;;37.37;30.63;;;;;;;2.72;100.00;100981.56;5252770;28;20036;-72
2022/11/19 07:10:28;;;;;;;36.17;29.63;;;;;;;2.69;100.00;100985.06;5233998;28;20049;-77
2022/11/19 07:13:00;;;;;;;38.10;31.20;;;;;;;2.69;100.00;100992.00;5253291;28;20025;-78
2022/11/19 07:15:31;;;;;;;40.50;31.13;;;;;;;2.69;100.00;100994.59;5255336;28;20056;-77
2022/11/19 07:18:03;;;;;;;40.90;31.47;;;;;;;2.82;100.00;100997.69;5251283;28;20032;-76
2022/11/19 07:20:34;;;;;;;41.93;32.33;;;;;;;2.82;100.00;100995.97;5252272;28;20569;-76
2022/11/19 07:23:09;;;;;;;41.00;31.87;;;;;;;2.75;100.00;101003.03;5251925;28;20021;-76
2022/11/19 07:25:40;;;;;;;42.03;32.80;;;;;;;2.56;100.00;101007.81;5251518;28;20070;-76
2022/11/19 07:28:12;;;;;;;40.93;31.97;;;;;;;2.61;100.00;100995.63;5250412;28;20021;-74
2022/11/19 07:30:43;;;;;;;40.20;32.07;;;;;;;2.62;100.00;101009.38;5233992;28;20029;-76
2022/11/19 07:33:14;;;;;;;41.73;32.60;;;;;;;2.67;100.00;101004.97;5252136;28;20079;-76
2022/11/19 07:35:45;;;;;;;42.10;30.93;;;;;;;2.56;100.00;101009.53;5252069;28;20039;-75
2022/11/19 07:38:16;;;;;;;41.67;31.20;;;;;;;2.60;100.00;101024.94;5232974;28;20017;-76
2022/11/19 07:40:55;;;;;;;43.60;32.07;;;;;;;2.68;100.00;101023.91;5251607;28;20021;-76
2022/11/19 07:43:26;;;;;;;42.23;31.07;;;;;;;2.54;100.00;101025.09;5249843;28;20558;-73
2022/11/19 07:45:57;;;;;;;40.20;31.57;;;;;;;2.47;100.00;101020.94;5266941;28;20020;-76
2022/11/19 07:48:29;;;;;;;42.87;32.03;;;;;;;2.48;100.00;101018.31;5251285;28;20028;-75
2022/11/19 07:51:00;;;;;;;42.57;31.13;;;;;;;2.44;100.00;101028.75;5250956;28;20061;-75
2022/11/19 07:53:32;;;;;;;41.17;31.50;;;;;;;2.47;100.00;101044.19;5253654;28;20033;-75
2022/11/19 07:56:03;;;;;;;40.53;31.00;;;;;;;2.49;100.00;101032.09;5253345;28;20029;-77
2022/11/19 07:58:34;;;;;;;44.90;31.87;;;;;;;2.53;100.00;101038.91;5252103;28;20029;-72
2022/11/19 08:01:11;;;;;;;45.00;32.87;;;;;;;2.49;100.00;101043.28;5250997;28;20056;-77
2022/11/19 08:03:45;;;;;;;42.83;31.57;;;;;;;2.47;100.00;101042.47;5251561;28;20454;-77
2022/11/19 08:06:18;;;;;;;41.85;31.45;;;;;;;2.37;100.00;101030.63;5258184;28;20669;-77
2022/11/19 08:08:49;;;;;;;44.53;31.93;;;;;;;2.33;100.00;101037.63;5251139;28;20017;-76
2022/11/19 08:11:21;;;;;;;41.20;31.30;;;;;;;2.39;100.00;101037.47;5250302;28;20404;-75
2022/11/19 08:13:53;;;;;;;37.33;29.57;;;;;;;2.42;100.00;101050.34;5250887;28;20025;-76
2022/11/19 08:19:15;;;;;;;43.17;30.90;;;;;;;2.53;100.00;101057.00;5250662;28;20036;-76
2022/11/19 08:21:46;;;;;;;40.30;30.33;;;;;;;2.48;100.00;101057.09;5251143;28;20037;-76
2022/11/19 08:24:19;;;;;;;38.97;30.50;;;;;;;2.55;100.00;101055.22;5249713;28;20032;-71
2022/11/19 08:26:50;;;;;;;40.13;31.20;;;;;;;2.56;100.00;101056.94;5250173;28;20025;-76
2022/11/19 08:29:22;;;;;;;38.80;30.43;;;;;;;2.33;100.00;101050.53;5250320;28;20035;-73
2022/11/19 08:31:53;;;;;;;39.90;31.40;;;;;;;2.38;100.00;101055.59;5250256;28;20120;-77
2022/11/19 08:34:25;;;;;;;41.00;30.40;;;;;;;2.43;100.00;101053.75;5250702;28;20108;-77
2022/11/19 08:36:56;;;;;;;40.23;30.77;;;;;;;2.49;100.00;101060.53;5250531;28;20041;-76
2022/11/19 08:39:28;;;;;;;43.40;32.03;;;;;;;2.46;100.00;101058.03;5250509;28;20029;-76
2022/11/19 08:44:50;;;;;;;41.83;31.60;;;;;;;2.54;100.00;101066.44;5254599;28;20041;-77
2022/11/19 08:47:21;;;;;;;40.80;30.37;;;;;;;2.46;100.00;101060.63;5250302;28;20021;-76
2022/11/19 08:49:52;;;;;;;47.83;33.20;;;;;;;2.35;100.00;101072.03;5250370;28;20029;-76
2022/11/19 08:52:23;;;;;;;41.40;30.50;;;;;;;2.46;100.00;101071.78;5249933;28;20265;-77
2022/11/19 08:54:55;;;;;;;42.57;31.53;;;;;;;2.49;100.00;101063.97;5252174;28;20032;-72
2022/11/19 08:57:26;;;;;;;37.23;29.80;;;;;;;2.46;100.00;101081.28;5253217;28;20067;-74
2022/11/19 08:59:57;;;;;;;41.23;31.83;;;;;;;2.41;100.00;101083.97;5254632;28;20068;-75
2022/11/19 09:02:28;;;;;;;41.63;31.67;;;;;;;2.51;100.00;101092.38;5252912;28;20024;-77
2022/11/19 09:05:00;;;;;;;39.30;30.73;;;;;;;2.35;100.00;101084.97;5236258;28;20029;-77
2022/11/19 09:07:31;;;;;;;39.80;30.07;;;;;;;2.42;100.00;101088.25;5254306;28;20029;-77
2022/11/19 09:10:02;;;;;;;43.47;31.53;;;;;;;2.42;100.00;101077.91;5253461;28;20037;-77
2022/11/19 09:12:34;;;;;;;36.67;28.87;;;;;;;2.39;100.00;101091.75;5253334;28;20040;-76
2022/11/19 09:15:07;;;;;;;38.13;29.60;;;;;;;2.49;100.00;101082.06;5254298;28;20535;-75
2022/11/19 09:17:38;;;;;;;42.10;29.40;;;;;;;2.48;100.00;101080.34;5254226;28;20025;-72
2022/11/19 09:20:10;;;;;;;41.60;29.83;;;;;;;2.66;100.00;101096.34;5253936;28;20364;-76
2022/11/19 09:22:41;;;;;;;40.53;28.93;;;;;;;2.41;100.00;101091.72;5254032;28;20111;-76
2022/11/19 09:25:13;;;;;;;39.43;29.60;;;;;;;2.37;100.00;101106.47;5254310;28;20037;-75
2022/11/19 09:27:44;;;;;;;39.27;29.40;;;;;;;2.37;100.00;101109.06;5253417;28;20502;-77
2022/11/19 09:30:15;;;;;;;40.83;29.27;;;;;;;2.28;100.00;101104.06;5253797;28;20333;-76
2022/11/19 09:32:47;;;;;;;38.07;29.20;;;;;;;2.42;100.00;101112.38;5236184;28;20487;-73
2022/11/19 09:35:18;;;;;;;41.53;30.10;;;;;;;2.43;100.00;101110.63;5253399;28;20036;-77
2022/11/19 09:37:49;;;;;;;38.70;28.67;;;;;;;2.42;100.00;101109.81;5252914;28;20466;-76
2022/11/19 09:40:22;;;;;;;40.17;29.03;;;;;;;2.60;100.00;101118.03;5253928;28;20021;-74
2022/11/19 09:43:17;;;;;;;39.50;29.23;;;;;;;2.71;100.00;101122.09;5254682;28;20056;-78
2022/11/19 09:45:51;;;;;;;37.83;27.45;;;;;;;2.69;100.00;101127.31;5234667;28;20109;-77
2022/11/19 09:48:32;;;;;;;41.63;28.67;;;;;;;2.73;100.00;101133.28;5234707;28;20021;-71
2022/11/19 09:51:10;;;;;;;33.87;26.13;;;;;;;2.60;100.00;101136.13;5233681;28;20033;-80
2022/11/19 09:53:47;;;;;;;38.73;28.63;;;;;;;2.65;100.00;101146.38;5234904;28;20026;-72
2022/11/19 09:56:29;;;;;;;37.93;29.07;;;;;;;2.57;100.00;101143.09;5232630;28;20056;-77
2022/11/19 09:59:24;;;;;;;35.27;27.40;;;;;;;2.42;100.00;101146.00;5253997;28;20017;-77
2022/11/19 10:01:56;;;;;;;43.30;29.48;;;;;;;2.36;100.00;101140.94;5253741;28;20487;-76
2022/11/19 10:04:32;;;;;;;38.50;27.30;;;;;;;2.42;100.00;101148.59;5255535;28;20028;-78
2022/11/19 10:07:20;;;;;;;37.10;27.97;;;;;;;2.51;100.00;101144.09;5255105;28;20119;-78
2022/11/19 10:10:19;;;;;;;37.53;26.97;;;;;;;2.44;100.00;101145.09;5254920;28;20025;-78
2022/11/19 10:13:10;;;;;;;37.03;26.97;;;;;;;2.34;100.00;101149.63;5252648;28;20391;-75
2022/11/19 10:16:06;;;;;;;37.97;27.57;;;;;;;2.54;100.00;101159.53;5235522;28;20438;-74
2022/11/19 10:19:04;;;;;;;41.30;27.93;;;;;;;2.44;100.00;101147.69;5252499;28;20499;-76
2022/11/19 10:21:53;;;;;;;42.97;28.13;;;;;;;2.43;100.00;101146.81;5251050;28;20045;-73
2022/11/19 10:24:37;;;;;;;36.90;26.13;;;;;;;2.36;100.00;101156.44;5252879;28;20484;-73
2022/11/19 10:27:18;;;;;;;41.97;27.35;;;;;;;2.23;100.00;101155.00;5252256;28;20170;-73
2022/11/19 10:29:53;;;;;;;37.57;26.40;;;;;;;2.27;100.00;101165.22;5235933;28;20040;-73
2022/11/19 10:32:40;;;;;;;40.33;27.73;;;;;;;2.44;100.00;101163.19;5235022;28;20082;-72
2022/11/19 10:35:19;;;;;;;36.77;27.73;;;;;;;2.34;100.00;101163.38;5254028;28;20025;-72
2022/11/19 10:38:01;;;;;;;36.30;26.97;;;;;;;2.35;100.00;101165.09;5252534;28;20037;-72
2022/11/19 10:40:38;;;;;;;37.33;26.53;;;;;;;2.22;100.00;101168.78;5252586;28;20036;-73
2022/11/19 10:43:28;;;;;;;35.13;25.63;;;;;;;2.49;100.00;101169.13;5254928;28;20040;-72
2022/11/19 10:46:03;;;;;;;35.77;26.83;;;;;;;2.41;100.00;101170.13;5253567;28;20055;-74
2022/11/19 10:48:41;;;;;;;35.37;26.67;;;;;;;2.41;100.00;101158.94;5254684;28;20029;-72
2022/11/19 10:51:27;;;;;;;33.27;25.63;;;;;;;2.49;100.00;101162.22;5252598;28;20404;-71
2022/11/19 10:54:02;;;;;;;35.63;24.63;;;;;;;2.61;100.00;101166.28;5253851;28;20028;-70
2022/11/19 10:56:39;;;;;;;30.03;23.90;;;;;;;2.51;100.00;101164.78;5256576;28;20028;-71
2022/11/19 10:59:23;;;;;;;31.57;23.43;;;;;;;2.58;100.00;101166.38;5254828;28;20021;-70
2022/11/19 11:02:00;;;;;;;31.73;23.73;;;;;;;2.46;100.00;101166.63;5253430;28;20036;-71
2022/11/19 11:04:31;;;;;;;32.67;24.50;;;;;;;2.44;100.00;101170.97;5254207;28;20040;-70
2022/11/19 11:07:04;;;;;;;33.30;24.30;;;;;;;2.42;100.00;101177.03;5254952;28;20029;-70
2022/11/19 11:09:38;;;;;;;31.27;24.10;;;;;;;2.45;100.00;101168.34;5258997;28;20021;-70
2022/11/19 11:15:18;;;;;;;34.73;24.13;;;;;;;2.55;100.00;101161.22;5250761;28;20828;-71
2022/11/19 11:18:07;;;;;;;36.93;24.60;;;;;;;2.53;100.00;101163.84;5250452;28;20471;-72
2022/11/19 11:20:46;;;;;;;30.27;22.03;;;;;;;2.38;100.00;101162.44;5233818;28;20699;-72
2022/11/19 11:23:21;;;;;;;34.87;25.83;;;;;;;2.29;100.00;101153.13;5235618;28;20033;-72
2022/11/19 11:25:55;;;;;;;29.73;23.07;;;;;;;2.52;100.00;101169.06;5252669;28;20036;-72
2022/11/19 11:28:26;;;;;;;31.27;22.60;;;;;;;2.42;100.00;101163.22;5251688;28;20045;-71
2022/11/19 11:30:59;;;;;;;30.47;23.10;;;;;;;2.51;100.00;101169.94;5252851;28;20070;-71
2022/11/19 11:33:37;;;;;;;29.23;22.23;;;;;;;2.39;100.00;101161.56;5253399;28;20121;-74
2022/11/19 11:36:15;;;;;;;31.73;23.57;;;;;;;2.46;100.00;101158.84;5249493;28;20021;-73
2022/11/19 11:38:49;;;;;;;28.73;23.07;;;;;;;2.45;100.00;101155.41;5259347;28;20061;-73
2022/11/19 11:41:24;;;;;;;25.92;20.83;;;;;;;2.41;100.00;101152.03;5232217;28;20026;-73
2022/11/19 11:44:02;;;;;;;27.27;21.67;;;;;;;2.41;100.00;101130.50;5231371;28;20061;-74
2022/11/19 11:46:38;;;;;;;26.17;21.43;;;;;;;2.46;100.00;101151.09;5232728;28;20029;-73
2022/11/19 11:49:31;;;;;;;29.03;21.30;;;;;;;2.59;100.00;101152.53;5232318;28;20108;-73
2022/11/19 11:52:13;;;;;;;26.00;21.23;;;;;;;2.39;100.00;101153.78;5232017;28;20175;-74
2022/11/19 11:54:57;;;;;;;26.37;20.20;;;;;;;2.52;100.00;101156.13;5232580;28;20040;-71
2022/11/19 11:57:34;;;;;;;22.70;19.02;;;;;;;2.47;100.00;101143.31;5231922;28;20736;-73
2022/11/19 12:00:31;;;;;;;24.80;18.87;;;;;;;2.59;100.00;101157.72;5241773;28;20483;-72
2022/11/19 12:03:07;;;;;;;25.90;19.27;;;;;;;2.54;100.00;101160.41;5233624;28;20047;-71
2022/11/19 12:05:44;;;;;;;25.13;19.00;;;;;;;2.59;100.00;101146.50;5232235;28;20515;-73
2022/11/19 12:08:52;;;;;;;23.77;18.90;;;;;;;2.56;100.00;101142.25;5232256;28;20030;-73